Time;durP1;ratioP1;P1;durP2;ratioP2;P2;SDS_P1;SDS_P2;PMS_P1;PMS_P2;Temp;Humidity;BMP_temperature;BMP_pressure;BME280_temperature;BME280_humidity;BME280_pressure;Samples;Min_cycle;Max_cycle;Signal;HPM_P1;HPM_P2
2023/07/11 00:03:50;;;;;;;2.30;2.10;;;;;;;;;;8298659;28;20345;-72
2023/07/11 00:07:50;;;;;;;2.63;1.90;;;;;;;;;;8322554;28;20083;-72
2023/07/11 00:11:51;;;;;;;2.45;2.15;;;;;;;;;;8321460;28;20024;-72
2023/07/11 00:15:58;;;;;;;3.67;2.13;;;;;;;;;;8320483;28;20149;-72
2023/07/11 00:19:59;;;;;;;2.67;2.13;;;;;;;;;;8320525;28;20118;-72
2023/07/11 00:24:03;;;;;;;2.37;1.90;;;;;;;;;;8321586;28;20024;-72
2023/07/11 00:28:03;;;;;;;2.17;2.05;;;;;;;;;;8320626;28;20031;-72
2023/07/11 00:32:04;;;;;;;3.38;2.08;;;;;;;;;;8319443;28;20509;-72
2023/07/11 00:36:04;;;;;;;2.42;1.75;;;;;;;;;;8321314;28;20033;-72
2023/07/11 00:40:05;;;;;;;2.83;2.08;;;;;;;;;;8318399;28;20478;-72
2023/07/11 00:44:10;;;;;;;2.60;1.92;;;;;;;;;;8318142;28;20029;-72
2023/07/11 00:48:11;;;;;;;3.85;2.20;;;;;;;;;;8304869;28;20041;-72
2023/07/11 00:52:14;;;;;;;4.13;2.20;;;;;;;;;;8322698;28;20017;-72
2023/07/11 00:56:16;;;;;;;2.83;2.10;;;;;;;;;;8322802;28;20033;-72
2023/07/11 01:00:16;;;;;;;5.53;2.00;;;;;;;;;;8327217;28;20466;-71
2023/07/11 01:04:19;;;;;;;2.40;1.88;;;;;;;;;;8329811;28;20025;-72
2023/07/11 01:08:19;;;;;;;4.05;2.40;;;;;;;;;;8311013;28;20492;-71
2023/07/11 01:12:20;;;;;;;2.65;2.03;;;;;;;;;;8327563;28;20025;-72
2023/07/11 01:16:21;;;;;;;2.30;1.90;;;;;;;;;;8326639;28;20147;-72
2023/07/11 01:20:22;;;;;;;1.90;1.73;;;;;;;;;;8326815;28;20064;-72
2023/07/11 01:24:23;;;;;;;1.90;1.80;;;;;;;;;;8327400;28;20301;-72
2023/07/11 01:28:25;;;;;;;4.82;2.45;;;;;;;;;;8326684;28;20052;-72
2023/07/11 01:32:25;;;;;;;3.28;1.75;;;;;;;;;;8313285;28;20040;-72
2023/07/11 01:36:25;;;;;;;2.47;1.90;;;;;;;;;;8326147;28;20334;-72
2023/07/11 01:40:25;;;;;;;2.23;2.03;;;;;;;;;;8327812;28;20098;-72
2023/07/11 01:44:26;;;;;;;2.13;1.92;;;;;;;;;;8326789;28;20331;-72
2023/07/11 01:48:26;;;;;;;2.97;2.20;;;;;;;;;;8325583;28;20041;-72
2023/07/11 01:52:27;;;;;;;2.17;1.90;;;;;;;;;;8307923;28;20036;-72
2023/07/11 01:56:27;;;;;;;2.13;1.90;;;;;;;;;;8307984;28;20025;-72
2023/07/11 02:00:27;;;;;;;2.15;1.95;;;;;;;;;;8308494;28;20352;-72
2023/07/11 02:04:27;;;;;;;3.83;1.93;;;;;;;;;;8326144;28;20937;-72
2023/07/11 02:08:28;;;;;;;2.00;1.80;;;;;;;;;;8324556;28;20386;-72
2023/07/11 02:12:28;;;;;;;3.67;1.75;;;;;;;;;;8325415;28;20423;-72
2023/07/11 02:16:28;;;;;;;2.20;2.00;;;;;;;;;;8324119;28;20041;-72
2023/07/11 02:20:28;;;;;;;2.77;2.10;;;;;;;;;;8327105;28;20486;-72
2023/07/11 02:24:29;;;;;;;3.50;1.95;;;;;;;;;;8328014;28;20020;-72
2023/07/11 02:28:29;;;;;;;2.60;1.80;;;;;;;;;;8323645;28;20891;-72
2023/07/11 02:32:29;;;;;;;2.33;2.00;;;;;;;;;;8326077;28;20047;-72
2023/07/11 02:36:30;;;;;;;2.47;2.10;;;;;;;;;;8323421;28;20840;-72
2023/07/11 02:40:30;;;;;;;5.53;2.10;;;;;;;;;;8325429;28;20905;-72
2023/07/11 02:44:30;;;;;;;2.70;2.00;;;;;;;;;;8323418;28;20524;-72
2023/07/11 02:48:30;;;;;;;10.07;2.05;;;;;;;;;;8309149;28;20036;-72
2023/07/11 02:52:32;;;;;;;3.75;1.98;;;;;;;;;;8325397;28;20149;-72
2023/07/11 02:56:33;;;;;;;3.10;2.00;;;;;;;;;;8325536;28;20085;-72
2023/07/11 03:00:33;;;;;;;2.20;1.77;;;;;;;;;;8326466;28;20155;-72
2023/07/11 03:04:34;;;;;;;2.50;2.30;;;;;;;;;;8305047;28;20021;-72
2023/07/11 03:08:34;;;;;;;2.50;2.00;;;;;;;;;;8306193;28;21116;-72
2023/07/11 03:12:34;;;;;;;3.30;2.20;;;;;;;;;;8322171;28;20037;-72
2023/07/11 03:16:35;;;;;;;2.75;2.33;;;;;;;;;;8322189;28;20107;-72
2023/07/11 03:20:38;;;;;;;3.57;2.07;;;;;;;;;;8325873;28;20024;-72
2023/07/11 03:24:38;;;;;;;;;;;;;;;;;;8323587;28;20033;-72
2023/07/11 03:28:38;;;;;;;2.53;2.10;;;;;;;;;;8323908;28;20022;-72
2023/07/11 03:32:38;;;;;;;3.20;2.03;;;;;;;;;;8322474;28;20114;-72
2023/07/11 03:36:39;;;;;;;2.38;2.00;;;;;;;;;;8321732;28;20060;-72
2023/07/11 03:40:39;;;;;;;3.00;2.20;;;;;;;;;;8322736;28;20032;-72
2023/07/11 03:44:41;;;;;;;2.97;2.15;;;;;;;;;;8322215;28;20033;-72
2023/07/11 03:48:42;;;;;;;6.20;2.38;;;;;;;;;;8321149;28;20477;-72
2023/07/11 03:52:42;;;;;;;3.85;2.00;;;;;;;;;;8323851;28;20104;-73
2023/07/11 03:56:43;;;;;;;3.60;2.10;;;;;;;;;;8321730;28;20025;-72
2023/07/11 04:00:45;;;;;;;2.33;2.13;;;;;;;;;;8321982;28;20033;-72
2023/07/11 04:04:45;;;;;;;2.70;2.35;;;;;;;;;;8320766;28;20031;-71
2023/07/11 04:08:47;;;;;;;3.78;2.13;;;;;;;;;;8320903;28;20025;-72
2023/07/11 04:12:47;;;;;;;3.10;1.90;;;;;;;;;;8318796;28;20032;-72
2023/07/11 04:16:47;;;;;;;4.28;2.22;;;;;;;;;;8321856;28;20090;-72
2023/07/11 04:20:48;;;;;;;4.37;2.03;;;;;;;;;;8319221;28;20040;-72
2023/07/11 04:24:48;;;;;;;2.95;2.17;;;;;;;;;;8306197;28;21070;-72
2023/07/11 04:28:48;;;;;;;3.03;2.10;;;;;;;;;;8322571;28;20099;-72
2023/07/11 04:32:51;;;;;;;4.30;2.10;;;;;;;;;;8320625;28;20036;-72
2023/07/11 04:36:51;;;;;;;2.47;2.08;;;;;;;;;;8315227;28;20033;-72
2023/07/11 04:40:51;;;;;;;3.70;2.50;;;;;;;;;;8320566;28;20482;-70
2023/07/11 04:44:51;;;;;;;3.92;2.28;;;;;;;;;;8317755;28;20071;-70
2023/07/11 04:48:52;;;;;;;9.38;2.30;;;;;;;;;;8320956;28;20040;-70
2023/07/11 04:52:52;;;;;;;4.35;2.38;;;;;;;;;;8316067;28;20041;-70
2023/07/11 04:56:56;;;;;;;3.88;2.00;;;;;;;;;;8309518;28;20033;-70
2023/07/11 05:01:00;;;;;;;16.67;2.80;;;;;;;;;;8319097;28;20043;-70
2023/07/11 05:05:00;;;;;;;4.45;2.15;;;;;;;;;;8318722;28;20701;-70
2023/07/11 05:09:00;;;;;;;4.70;2.35;;;;;;;;;;8316325;28;20021;-70
2023/07/11 05:13:01;;;;;;;2.80;2.13;;;;;;;;;;8316142;28;20032;-70
2023/07/11 05:17:01;;;;;;;8.63;2.15;;;;;;;;;;8317942;28;20040;-70
2023/07/11 05:21:01;;;;;;;2.43;2.00;;;;;;;;;;8315165;28;20040;-70
2023/07/11 05:25:01;;;;;;;3.35;2.35;;;;;;;;;;8303024;28;20021;-70
2023/07/11 05:29:03;;;;;;;4.32;2.20;;;;;;;;;;8316184;28;20009;-70
2023/07/11 05:33:03;;;;;;;3.08;2.47;;;;;;;;;;8317763;28;20036;-70
2023/07/11 05:37:04;;;;;;;5.00;2.38;;;;;;;;;;8316561;28;20029;-70
2023/07/11 05:41:04;;;;;;;3.83;2.40;;;;;;;;;;8320407;28;20033;-73
2023/07/11 05:45:04;;;;;;;4.30;2.13;;;;;;;;;;8322861;28;20065;-72
2023/07/11 05:49:05;;;;;;;5.22;2.33;;;;;;;;;;8324197;28;20021;-72
2023/07/11 05:53:05;;;;;;;2.38;2.17;;;;;;;;;;8325666;28;20098;-72
2023/07/11 05:57:05;;;;;;;2.20;1.90;;;;;;;;;;8302212;28;20036;-72
2023/07/11 06:01:06;;;;;;;4.33;2.20;;;;;;;;;;8319329;28;20094;-73
2023/07/11 06:05:06;;;;;;;2.97;2.50;;;;;;;;;;8324378;28;20291;-72
2023/07/11 06:09:07;;;;;;;2.70;2.20;;;;;;;;;;8321502;28;21044;-72
2023/07/11 06:13:07;;;;;;;3.75;2.45;;;;;;;;;;8324518;28;20070;-72
2023/07/11 06:17:08;;;;;;;6.20;2.55;;;;;;;;;;8326066;28;20796;-72
2023/07/11 06:21:09;;;;;;;4.28;2.33;;;;;;;;;;8327634;28;20021;-73
2023/07/11 06:25:10;;;;;;;9.05;2.88;;;;;;;;;;8326987;28;20470;-72
2023/07/11 06:29:11;;;;;;;10.52;2.70;;;;;;;;;;8324830;28;20025;-73
2023/07/11 06:33:12;;;;;;;8.35;2.58;;;;;;;;;;8326279;28;20482;-73
2023/07/11 06:37:12;;;;;;;4.35;2.70;;;;;;;;;;8326319;28;20032;-73
2023/07/11 06:41:12;;;;;;;2.90;2.40;;;;;;;;;;8326386;28;20025;-73
2023/07/11 06:45:13;;;;;;;4.57;2.47;;;;;;;;;;8324287;28;20406;-73
2023/07/11 06:49:13;;;;;;;2.83;2.28;;;;;;;;;;8326247;28;20048;-73
2023/07/11 06:53:13;;;;;;;3.23;2.40;;;;;;;;;;8307593;28;20032;-73
2023/07/11 06:57:14;;;;;;;4.57;2.77;;;;;;;;;;8322973;28;20033;-72
2023/07/11 07:01:15;;;;;;;7.60;2.80;;;;;;;;;;8321167;28;20035;-73
2023/07/11 07:05:15;;;;;;;3.45;2.60;;;;;;;;;;8325555;28;20109;-73
2023/07/11 07:09:16;;;;;;;3.42;2.33;;;;;;;;;;8324763;28;20025;-72
2023/07/11 07:13:18;;;;;;;5.43;2.60;;;;;;;;;;8325166;28;20060;-72
2023/07/11 07:17:18;;;;;;;3.50;2.30;;;;;;;;;;8321737;28;20037;-72
2023/07/11 07:21:18;;;;;;;6.67;2.80;;;;;;;;;;8324655;28;20167;-72
2023/07/11 07:25:19;;;;;;;4.13;2.90;;;;;;;;;;8320759;28;20283;-72
2023/07/11 07:29:21;;;;;;;2.75;2.55;;;;;;;;;;8323137;28;20029;-72
2023/07/11 07:33:25;;;;;;;7.68;2.78;;;;;;;;;;8324273;28;20047;-72
2023/07/11 07:37:25;;;;;;;5.78;2.67;;;;;;;;;;8318176;28;20021;-72
2023/07/11 07:41:26;;;;;;;7.60;2.60;;;;;;;;;;8308051;28;20126;-72
2023/07/11 07:45:26;;;;;;;6.03;2.50;;;;;;;;;;8320749;28;20036;-72
2023/07/11 07:49:26;;;;;;;8.05;2.70;;;;;;;;;;8323323;28;20039;-72
2023/07/11 07:53:27;;;;;;;3.00;2.65;;;;;;;;;;8318574;28;20109;-72
2023/07/11 07:57:27;;;;;;;5.60;2.78;;;;;;;;;;8319682;28;20043;-72
2023/07/11 08:01:27;;;;;;;3.83;2.63;;;;;;;;;;8315989;28;20979;-72
2023/07/11 08:05:27;;;;;;;3.07;2.60;;;;;;;;;;8317625;28;20029;-72
2023/07/11 08:09:29;;;;;;;5.47;2.60;;;;;;;;;;8319542;28;20032;-72
2023/07/11 08:13:29;;;;;;;;;;;;;;;;;;8316186;28;20871;-72
2023/07/11 08:17:30;;;;;;;5.13;2.92;;;;;;;;;;8320154;28;19917;-72
2023/07/11 08:21:30;;;;;;;4.40;2.90;;;;;;;;;;8320952;28;20028;-71
2023/07/11 08:25:31;;;;;;;12.95;2.97;;;;;;;;;;8316079;28;20770;-72
2023/07/11 08:29:32;;;;;;;5.15;3.05;;;;;;;;;;8318057;28;20681;-72
2023/07/11 08:33:32;;;;;;;4.88;2.97;;;;;;;;;;8315192;28;20153;-72
2023/07/11 08:37:33;;;;;;;4.20;2.75;;;;;;;;;;8311037;28;20036;-72
2023/07/11 08:41:36;;;;;;;5.10;2.80;;;;;;;;;;8298039;28;20029;-72
2023/07/11 08:45:46;;;;;;;5.55;2.60;;;;;;;;;;8315173;28;20037;-72
2023/07/11 08:49:55;;;;;;;7.00;2.90;;;;;;;;;;8316504;28;20036;-72
2023/07/11 08:54:05;;;;;;;5.65;2.80;;;;;;;;;;8318704;28;20029;-72
2023/07/11 08:58:21;;;;;;;3.72;3.20;;;;;;;;;;8316467;28;20021;-72
2023/07/11 09:02:27;;;;;;;5.07;3.10;;;;;;;;;;8317557;28;20075;-72
2023/07/11 09:06:35;;;;;;;8.45;3.17;;;;;;;;;;8316487;28;20639;-72
2023/07/11 09:10:36;;;;;;;5.00;2.63;;;;;;;;;;8318237;28;20476;-72
2023/07/11 09:14:47;;;;;;;4.30;2.63;;;;;;;;;;8318317;28;20044;-72
2023/07/11 09:18:51;;;;;;;7.55;2.70;;;;;;;;;;8321702;28;20048;-72
2023/07/11 09:23:02;;;;;;;2.90;2.60;;;;;;;;;;8323888;28;20069;-73
2023/07/11 09:27:16;;;;;;;3.67;3.17;;;;;;;;;;8324894;28;20698;-72
2023/07/11 09:31:18;;;;;;;9.35;3.33;;;;;;;;;;8321790;28;20052;-72
2023/07/11 09:35:24;;;;;;;4.70;3.22;;;;;;;;;;8323951;28;20143;-72
2023/07/11 09:39:33;;;;;;;5.53;3.20;;;;;;;;;;8291855;28;20031;-72
2023/07/11 09:43:33;;;;;;;7.60;3.10;;;;;;;;;;8325492;28;20029;-72
2023/07/11 09:47:33;;;;;;;7.43;2.80;;;;;;;;;;8323656;28;20063;-72
2023/07/11 09:51:36;;;;;;;6.27;3.23;;;;;;;;;;8319195;28;20068;-73
2023/07/11 09:55:37;;;;;;;4.35;3.05;;;;;;;;;;8326716;28;20107;-72
2023/07/11 09:59:38;;;;;;;4.13;3.50;;;;;;;;;;8306844;28;20027;-73
2023/07/11 10:03:38;;;;;;;;;;;;;;;;;;8327089;28;20255;-72
2023/07/11 10:07:38;;;;;;;4.97;3.15;;;;;;;;;;8326068;28;20067;-73
2023/07/11 10:11:38;;;;;;;8.57;3.00;;;;;;;;;;8325865;28;20470;-72
2023/07/11 10:15:38;;;;;;;3.83;2.90;;;;;;;;;;8325401;28;20744;-73
2023/07/11 10:19:39;;;;;;;4.90;3.20;;;;;;;;;;8317952;28;20025;-73
2023/07/11 10:23:42;;;;;;;4.80;3.17;;;;;;;;;;8324497;28;20109;-73
2023/07/11 10:27:44;;;;;;;4.05;3.00;;;;;;;;;;8323098;28;20126;-73
2023/07/11 10:31:48;;;;;;;4.00;3.00;;;;;;;;;;8327681;28;20128;-73
2023/07/11 10:35:53;;;;;;;6.03;3.30;;;;;;;;;;8321787;28;20025;-73
2023/07/11 10:39:55;;;;;;;4.45;3.47;;;;;;;;;;8320109;28;20024;-73
2023/07/11 10:43:55;;;;;;;6.65;3.10;;;;;;;;;;8324733;28;20474;-73
2023/07/11 10:48:01;;;;;;;8.32;3.50;;;;;;;;;;8324315;28;20929;-73
2023/07/11 10:52:08;;;;;;;4.63;3.17;;;;;;;;;;8324452;28;20061;-73
2023/07/11 10:56:26;;;;;;;4.82;2.95;;;;;;;;;;8321989;28;20033;-73
2023/07/11 11:00:47;;;;;;;3.80;3.30;;;;;;;;;;8324811;28;20037;-73
2023/07/11 11:04:52;;;;;;;6.00;3.43;;;;;;;;;;8325966;28;20614;-73
2023/07/11 11:08:52;;;;;;;4.75;3.20;;;;;;;;;;8323223;28;20083;-73
2023/07/11 11:12:53;;;;;;;5.73;3.10;;;;;;;;;;8317516;28;20115;-73
2023/07/11 11:17:05;;;;;;;4.18;3.42;;;;;;;;;;8301007;28;20041;-74
2023/07/11 11:21:08;;;;;;;3.95;3.35;;;;;;;;;;8322209;28;20021;-73
2023/07/11 11:25:35;;;;;;;3.30;3.00;;;;;;;;;;8322642;28;20377;-73
2023/07/11 11:29:41;;;;;;;4.88;3.65;;;;;;;;;;8296703;28;20033;-73
2023/07/11 11:33:47;;;;;;;3.80;3.35;;;;;;;;;;8325394;28;20519;-73
2023/07/11 11:37:53;;;;;;;3.67;3.00;;;;;;;;;;8325080;28;20083;-73
2023/07/11 11:41:56;;;;;;;5.18;3.40;;;;;;;;;;8322845;28;20522;-74
2023/07/11 11:46:00;;;;;;;3.95;3.20;;;;;;;;;;8319841;28;20398;-73
2023/07/11 11:50:00;;;;;;;4.50;3.28;;;;;;;;;;8321974;28;20040;-74
2023/07/11 11:54:05;;;;;;;5.38;3.47;;;;;;;;;;8324012;28;20033;-73
2023/07/11 11:58:14;;;;;;;4.43;3.30;;;;;;;;;;8317694;28;20029;-73
2023/07/11 12:02:32;;;;;;;5.97;3.30;;;;;;;;;;8316320;28;20131;-73
2023/07/11 12:06:36;;;;;;;5.50;3.30;;;;;;;;;;8301231;28;20086;-73
2023/07/11 12:10:37;;;;;;;5.55;3.60;;;;;;;;;;8318656;28;20029;-73
2023/07/11 12:14:52;;;;;;;4.45;3.35;;;;;;;;;;8317435;28;20028;-73
2023/07/11 12:18:56;;;;;;;4.43;3.25;;;;;;;;;;8311415;28;20033;-73
2023/07/11 12:22:58;;;;;;;4.25;3.20;;;;;;;;;;8314492;28;20281;-73
2023/07/11 12:27:17;;;;;;;5.72;3.42;;;;;;;;;;8312952;28;20017;-73
2023/07/11 12:31:22;;;;;;;5.95;3.60;;;;;;;;;;8316492;28;20075;-73
2023/07/11 12:35:31;;;;;;;5.55;3.47;;;;;;;;;;8316919;28;20021;-73
2023/07/11 12:39:44;;;;;;;3.80;3.03;;;;;;;;;;8319141;28;20430;-73
2023/07/11 12:43:47;;;;;;;6.07;3.30;;;;;;;;;;8315537;28;20037;-73
2023/07/11 12:47:49;;;;;;;9.98;3.30;;;;;;;;;;8316733;28;20037;-73
2023/07/11 12:51:49;;;;;;;7.40;3.30;;;;;;;;;;8302072;28;20024;-73
2023/07/11 12:55:51;;;;;;;5.17;3.23;;;;;;;;;;8315315;28;20037;-73
2023/07/11 12:59:51;;;;;;;5.95;3.00;;;;;;;;;;8320469;28;20983;-72
2023/07/11 13:03:51;;;;;;;7.85;3.20;;;;;;;;;;8321867;28;20079;-73
2023/07/11 13:07:51;;;;;;;6.97;3.25;;;;;;;;;;8319485;28;20025;-73
2023/07/11 13:11:52;;;;;;;5.57;3.20;;;;;;;;;;8319510;28;20132;-73
2023/07/11 13:15:53;;;;;;;4.30;3.17;;;;;;;;;;8322446;28;20128;-73
2023/07/11 13:20:00;;;;;;;4.15;3.22;;;;;;;;;;8319639;28;20025;-73
2023/07/11 13:24:01;;;;;;;3.30;3.00;;;;;;;;;;8320143;28;20021;-73
2023/07/11 13:28:01;;;;;;;5.03;3.65;;;;;;;;;;8319757;28;20033;-73
2023/07/11 13:32:03;;;;;;;5.10;3.60;;;;;;;;;;8319845;28;20210;-73
2023/07/11 13:36:15;;;;;;;3.92;3.20;;;;;;;;;;8305771;28;20040;-73
2023/07/11 13:40:35;;;;;;;4.15;3.35;;;;;;;;;;8320385;28;20116;-73
2023/07/11 13:44:39;;;;;;;4.57;3.38;;;;;;;;;;8321709;28;20039;-73
2023/07/11 13:48:41;;;;;;;4.43;3.63;;;;;;;;;;8315989;28;20151;-73
2023/07/11 13:52:48;;;;;;;6.13;3.42;;;;;;;;;;8319079;28;20025;-73
2023/07/11 13:56:48;;;;;;;5.25;3.72;;;;;;;;;;8318588;28;20017;-73
2023/07/11 14:00:51;;;;;;;4.82;3.10;;;;;;;;;;8320892;28;20064;-72
2023/07/11 14:04:51;;;;;;;3.83;3.45;;;;;;;;;;8323499;28;20048;-73
2023/07/11 14:08:52;;;;;;;5.03;3.40;;;;;;;;;;8315667;28;20032;-73
2023/07/11 14:12:53;;;;;;;3.80;3.33;;;;;;;;;;8310052;28;20275;-73
2023/07/11 14:16:53;;;;;;;3.72;2.90;;;;;;;;;;8323751;28;20060;-73
2023/07/11 14:20:53;;;;;;;3.60;3.28;;;;;;;;;;8316146;28;20067;-73
2023/07/11 14:24:54;;;;;;;3.53;2.88;;;;;;;;;;8315308;28;20039;-73
2023/07/11 14:28:54;;;;;;;4.53;3.50;;;;;;;;;;8294253;28;20108;-73
2023/07/11 14:32:54;;;;;;;4.77;3.23;;;;;;;;;;8316645;28;21061;-73
2023/07/11 14:36:55;;;;;;;9.77;3.20;;;;;;;;;;8320915;28;20441;-72
2023/07/11 14:40:55;;;;;;;4.28;3.30;;;;;;;;;;8298067;28;20036;-72
2023/07/11 14:44:56;;;;;;;;;;;;;;;;;;8318389;28;20183;-73
2023/07/11 14:48:56;;;;;;;4.57;3.17;;;;;;;;;;8291100;28;19943;-73
2023/07/11 14:52:56;;;;;;;;;;;;;;;;;;8313251;28;20028;-73
2023/07/11 14:56:57;;;;;;;3.78;3.30;;;;;;;;;;8297528;28;19908;-73
2023/07/11 15:00:57;;;;;;;;;;;;;;;;;;8322775;28;20072;-73
2023/07/11 15:04:58;;;;;;;3.63;3.20;;;;;;;;;;8321555;28;19920;-74
2023/07/11 15:08:58;;;;;;;5.28;3.42;;;;;;;;;;8320012;28;20009;-73
2023/07/11 15:12:58;;;;;;;4.07;3.20;;;;;;;;;;8316778;28;20024;-73
2023/07/11 15:16:58;;;;;;;6.50;3.55;;;;;;;;;;8286915;28;20128;-73
2023/07/11 15:20:59;;;;;;;5.15;3.88;;;;;;;;;;8312871;28;21190;-73
2023/07/11 15:24:59;;;;;;;4.25;3.20;;;;;;;;;;8311828;28;20020;-73
2023/07/11 15:28:59;;;;;;;4.43;3.33;;;;;;;;;;8318681;28;21492;-73
2023/07/11 15:32:59;;;;;;;7.07;4.00;;;;;;;;;;8318231;28;20028;-73
2023/07/11 15:36:59;;;;;;;4.60;3.38;;;;;;;;;;8317908;28;20029;-72
2023/07/11 15:41:01;;;;;;;4.57;3.63;;;;;;;;;;8316578;28;20102;-73
2023/07/11 15:45:04;;;;;;;5.38;3.83;;;;;;;;;;8317207;28;20029;-73
2023/07/11 15:49:14;;;;;;;8.85;4.00;;;;;;;;;;8327288;28;20033;-73
2023/07/11 15:53:15;;;;;;;5.88;3.88;;;;;;;;;;8335923;28;20130;-75
2023/07/11 15:57:15;;;;;;;;;;;;;;;;;;8351710;28;20017;-73
2023/07/11 16:01:25;;;;;;;6.57;3.72;;;;;;;;;;8352625;28;19946;-73
2023/07/11 16:05:29;;;;;;;4.03;3.63;;;;;;;;;;8304779;28;20028;-73
2023/07/11 16:09:29;;;;;;;5.32;3.70;;;;;;;;;;8325652;28;21102;-73
2023/07/11 16:13:32;;;;;;;7.32;3.80;;;;;;;;;;8341265;28;20029;-74
2023/07/11 16:17:32;;;;;;;5.00;3.92;;;;;;;;;;8342223;28;20037;-72
2023/07/11 16:21:32;;;;;;;5.45;3.75;;;;;;;;;;8329093;28;20025;-70
2023/07/11 16:25:33;;;;;;;7.65;4.00;;;;;;;;;;8333171;28;20032;-71
2023/07/11 16:29:33;;;;;;;10.00;3.90;;;;;;;;;;8324137;28;20027;-71
2023/07/11 16:33:33;;;;;;;9.15;4.00;;;;;;;;;;8325574;28;20155;-71
2023/07/11 16:37:34;;;;;;;3.95;3.65;;;;;;;;;;8311058;28;20548;-70
2023/07/11 16:41:34;;;;;;;7.05;3.95;;;;;;;;;;8344784;28;20029;-70
2023/07/11 16:45:35;;;;;;;5.85;3.83;;;;;;;;;;8330691;28;20040;-71
2023/07/11 16:49:35;;;;;;;7.43;4.00;;;;;;;;;;8334257;28;20028;-71
2023/07/11 16:53:35;;;;;;;5.40;3.92;;;;;;;;;;8325399;28;20271;-70
2023/07/11 16:57:35;;;;;;;4.25;3.85;;;;;;;;;;8327635;28;20029;-70
2023/07/11 17:01:36;;;;;;;4.68;3.60;;;;;;;;;;8330169;28;20045;-70
2023/07/11 17:05:36;;;;;;;4.90;3.92;;;;;;;;;;8322280;28;20088;-71
2023/07/11 17:09:36;;;;;;;3.80;3.50;;;;;;;;;;8329988;28;20399;-70
2023/07/11 17:13:36;;;;;;;8.15;3.70;;;;;;;;;;8322951;28;20029;-70
2023/07/11 17:17:37;;;;;;;35.27;7.23;;;;;;;;;;8334394;28;20564;-68
2023/07/11 17:21:37;;;;;;;13.05;4.93;;;;;;;;;;8324687;28;20140;-70
2023/07/11 17:25:38;;;;;;;12.50;4.57;;;;;;;;;;8320782;28;20028;-69
2023/07/11 17:29:39;;;;;;;9.47;4.50;;;;;;;;;;8326655;28;20135;-70
2023/07/11 17:33:39;;;;;;;12.20;4.53;;;;;;;;;;8326088;28;20045;-68
2023/07/11 17:37:42;;;;;;;13.90;4.77;;;;;;;;;;8336822;28;20087;-68
2023/07/11 17:41:42;;;;;;;14.82;4.85;;;;;;;;;;8330201;28;20087;-69
2023/07/11 17:45:44;;;;;;;8.82;4.78;;;;;;;;;;8333740;28;20139;-68
2023/07/11 17:49:44;;;;;;;7.28;4.55;;;;;;;;;;8331680;28;20035;-68
2023/07/11 17:53:45;;;;;;;7.60;4.35;;;;;;;;;;8334226;28;20021;-69
2023/07/11 17:57:46;;;;;;;13.43;4.97;;;;;;;;;;8330472;28;20116;-69
2023/07/11 18:01:46;;;;;;;11.98;4.80;;;;;;;;;;8339831;28;20421;-69
2023/07/11 18:05:46;;;;;;;4.60;4.10;;;;;;;;;;8337600;28;20032;-69
2023/07/11 18:09:48;;;;;;;6.63;4.43;;;;;;;;;;8315414;28;20140;-68
2023/07/11 18:13:48;;;;;;;6.05;4.40;;;;;;;;;;8340332;28;20033;-68
2023/07/11 18:17:50;;;;;;;6.53;4.07;;;;;;;;;;8323977;28;20051;-70
2023/07/11 18:21:50;;;;;;;8.02;4.25;;;;;;;;;;8321337;28;20090;-68
2023/07/11 18:25:51;;;;;;;7.60;3.85;;;;;;;;;;8324530;28;20033;-69
2023/07/11 18:29:51;;;;;;;7.78;3.60;;;;;;;;;;8321814;28;20027;-68
2023/07/11 18:33:51;;;;;;;8.30;4.20;;;;;;;;;;8321722;28;20044;-68
2023/07/11 18:37:52;;;;;;;4.65;3.70;;;;;;;;;;8303474;28;20207;-69
2023/07/11 18:41:52;;;;;;;5.47;4.10;;;;;;;;;;8320100;28;20106;-69
2023/07/11 18:45:52;;;;;;;5.85;3.60;;;;;;;;;;8316563;28;20040;-69
2023/07/11 18:49:53;;;;;;;6.57;3.67;;;;;;;;;;8319390;28;20021;-69
2023/07/11 18:53:55;;;;;;;4.82;4.05;;;;;;;;;;8326606;28;20556;-71
2023/07/11 18:57:56;;;;;;;6.93;3.92;;;;;;;;;;8341139;28;20052;-68
2023/07/11 19:01:56;;;;;;;5.13;3.80;;;;;;;;;;8309327;28;20063;-69
2023/07/11 19:05:56;;;;;;;5.07;3.85;;;;;;;;;;8321513;28;20143;-69
2023/07/11 19:09:57;;;;;;;5.40;4.07;;;;;;;;;;8308148;28;20090;-69
2023/07/11 19:13:58;;;;;;;5.03;3.70;;;;;;;;;;8326296;28;20021;-70
2023/07/11 19:18:02;;;;;;;4.47;3.60;;;;;;;;;;8346279;28;20203;-69
2023/07/11 19:22:07;;;;;;;6.50;3.70;;;;;;;;;;8350658;28;20033;-69
2023/07/11 19:26:17;;;;;;;4.32;3.60;;;;;;;;;;8352205;28;20032;-70
2023/07/11 19:30:25;;;;;;;4.93;3.63;;;;;;;;;;8343570;28;20101;-69
2023/07/11 19:34:25;;;;;;;5.10;3.72;;;;;;;;;;8334746;28;20092;-71
2023/07/11 19:38:27;;;;;;;9.93;4.80;;;;;;;;;;8339358;28;20047;-70
2023/07/11 19:42:27;;;;;;;5.28;3.72;;;;;;;;;;8327002;28;20020;-68
2023/07/11 19:46:27;;;;;;;11.65;4.00;;;;;;;;;;8317460;28;20978;-69
2023/07/11 19:50:35;;;;;;;10.50;4.00;;;;;;;;;;8318650;28;20029;-69
2023/07/11 19:54:36;;;;;;;10.88;4.75;;;;;;;;;;8323730;28;20024;-69
2023/07/11 19:58:36;;;;;;;12.57;4.40;;;;;;;;;;8310584;28;20049;-69
2023/07/11 20:02:37;;;;;;;14.13;4.28;;;;;;;;;;8325299;28;20478;-69
2023/07/11 20:06:37;;;;;;;10.60;4.10;;;;;;;;;;8325611;28;20024;-68
2023/07/11 20:10:39;;;;;;;10.27;4.23;;;;;;;;;;8321619;28;20036;-68
2023/07/11 20:14:39;;;;;;;5.55;3.53;;;;;;;;;;8323962;28;20036;-68
2023/07/11 20:18:40;;;;;;;7.22;3.63;;;;;;;;;;8319180;28;20025;-68
2023/07/11 20:22:40;;;;;;;4.90;3.53;;;;;;;;;;8321587;28;21024;-68
2023/07/11 20:26:40;;;;;;;4.57;3.35;;;;;;;;;;8313725;28;20025;-69
2023/07/11 20:30:41;;;;;;;4.75;3.83;;;;;;;;;;8304695;28;20040;-69
2023/07/11 20:34:43;;;;;;;8.65;4.00;;;;;;;;;;8308066;28;21034;-69
2023/07/11 20:38:43;;;;;;;7.43;3.35;;;;;;;;;;8304836;28;20027;-69
2023/07/11 20:42:43;;;;;;;5.03;3.45;;;;;;;;;;8307035;28;20136;-69
2023/07/11 20:46:44;;;;;;;7.85;3.55;;;;;;;;;;8304475;28;20037;-69
2023/07/11 20:50:44;;;;;;;8.13;4.13;;;;;;;;;;8305215;28;20159;-69
2023/07/11 20:54:45;;;;;;;3.50;3.20;;;;;;;;;;8301290;28;20053;-69
2023/07/11 20:58:46;;;;;;;4.78;3.70;;;;;;;;;;8310834;28;20131;-69
2023/07/11 21:02:46;;;;;;;5.07;3.85;;;;;;;;;;8320752;28;20064;-69
2023/07/11 21:06:47;;;;;;;4.70;4.23;;;;;;;;;;8322350;28;20024;-69
2023/07/11 21:10:47;;;;;;;6.37;3.90;;;;;;;;;;8316133;28;20013;-70
2023/07/11 21:14:47;;;;;;;4.55;3.38;;;;;;;;;;8324059;28;20798;-69
2023/07/11 21:18:47;;;;;;;5.60;3.60;;;;;;;;;;8327137;28;20094;-69
2023/07/11 21:22:47;;;;;;;10.70;5.10;;;;;;;;;;8308373;28;20028;-69
2023/07/11 21:26:48;;;;;;;7.90;3.97;;;;;;;;;;8328259;28;20032;-68
2023/07/11 21:30:49;;;;;;;9.77;4.55;;;;;;;;;;8329743;28;20040;-68
2023/07/11 21:34:49;;;;;;;6.40;4.43;;;;;;;;;;8326201;28;20418;-68
2023/07/11 21:38:50;;;;;;;9.40;4.97;;;;;;;;;;8326158;28;20378;-68
2023/07/11 21:42:51;;;;;;;6.38;5.18;;;;;;;;;;8327754;28;20035;-68
2023/07/11 21:46:51;;;;;;;6.53;5.10;;;;;;;;;;8328879;28;20843;-69
2023/07/11 21:50:52;;;;;;;6.05;4.18;;;;;;;;;;8330638;28;20024;-68
2023/07/11 21:54:52;;;;;;;7.70;4.10;;;;;;;;;;8327662;28;20567;-69
2023/07/11 21:58:53;;;;;;;6.32;3.78;;;;;;;;;;8323566;28;20036;-68
2023/07/11 22:02:53;;;;;;;6.20;4.07;;;;;;;;;;8327386;28;20067;-69
2023/07/11 22:06:53;;;;;;;6.70;3.65;;;;;;;;;;8325851;28;20957;-68
2023/07/11 22:10:54;;;;;;;8.18;4.43;;;;;;;;;;8327207;28;20051;-68
2023/07/11 22:14:54;;;;;;;8.63;4.15;;;;;;;;;;8325124;28;20048;-68
2023/07/11 22:18:55;;;;;;;6.47;3.95;;;;;;;;;;8326107;28;20041;-67
2023/07/11 22:22:55;;;;;;;6.28;3.63;;;;;;;;;;8325310;28;20041;-68
2023/07/11 22:26:55;;;;;;;5.88;3.92;;;;;;;;;;8325307;28;20140;-68
2023/07/11 22:30:59;;;;;;;4.80;3.67;;;;;;;;;;8326476;28;20095;-67
2023/07/11 22:34:59;;;;;;;6.57;4.03;;;;;;;;;;8321315;28;20108;-67
2023/07/11 22:38:59;;;;;;;8.30;4.55;;;;;;;;;;8304641;28;20072;-71
2023/07/11 22:43:00;;;;;;;8.40;4.25;;;;;;;;;;8321998;28;20061;-70
2023/07/11 22:47:00;;;;;;;5.15;4.00;;;;;;;;;;8324284;28;20060;-70
2023/07/11 22:51:01;;;;;;;5.15;3.92;;;;;;;;;;8322717;28;20143;-70
2023/07/11 22:55:01;;;;;;;7.50;4.40;;;;;;;;;;8324730;28;20673;-70
2023/07/11 22:59:01;;;;;;;6.15;4.30;;;;;;;;;;8305643;28;20925;-70
2023/07/11 23:03:02;;;;;;;7.45;4.60;;;;;;;;;;8322571;28;20485;-70
2023/07/11 23:07:02;;;;;;;6.15;4.50;;;;;;;;;;8324299;28;20151;-70
2023/07/11 23:11:03;;;;;;;6.90;4.40;;;;;;;;;;8329110;28;20040;-73
2023/07/11 23:15:03;;;;;;;6.18;4.22;;;;;;;;;;8325506;28;20029;-70
2023/07/11 23:19:04;;;;;;;6.07;4.45;;;;;;;;;;8328603;28;20045;-70
2023/07/11 23:23:05;;;;;;;7.15;4.35;;;;;;;;;;8327192;28;20021;-70
2023/07/11 23:27:08;;;;;;;6.43;4.23;;;;;;;;;;8327393;28;20021;-70
2023/07/11 23:31:08;;;;;;;6.28;4.32;;;;;;;;;;8328658;28;20037;-70
2023/07/11 23:35:09;;;;;;;6.93;4.40;;;;;;;;;;8329366;28;20114;-70
2023/07/11 23:39:09;;;;;;;5.85;4.15;;;;;;;;;;8329071;28;20132;-70
2023/07/11 23:43:17;;;;;;;6.68;4.35;;;;;;;;;;8310013;28;20266;-70
2023/07/11 23:47:17;;;;;;;5.75;4.20;;;;;;;;;;8323743;28;20037;-70
2023/07/11 23:51:18;;;;;;;5.65;4.32;;;;;;;;;;8324358;28;20136;-70
2023/07/11 23:55:18;;;;;;;6.82;4.28;;;;;;;;;;8327207;28;20669;-70
2023/07/11 23:59:18;;;;;;;6.40;4.53;;;;;;;;;;8325647;28;20017;-70
